createdAt,value
2022-11-08T00:03:01.856Z,2.75
2022-11-08T00:08:22.328Z,3.55
2022-11-08T00:13:42.173Z,2.90
2022-11-08T00:18:46.050Z,3.70
2022-11-08T00:23:48.510Z,3.42
2022-11-08T00:28:50.942Z,2.80
2022-11-08T00:33:55.826Z,3.67
2022-11-08T00:38:58.233Z,3.47
2022-11-08T00:44:01.203Z,4.00
2022-11-08T00:49:05.075Z,4.28
2022-11-08T00:54:08.669Z,3.63
2022-11-08T00:59:12.356Z,3.90
2022-11-08T01:04:17.310Z,4.05
2022-11-08T01:09:20.115Z,3.70
2022-11-08T01:14:22.585Z,5.32
2022-11-08T01:19:26.478Z,3.67
2022-11-08T01:24:28.923Z,3.63
2022-11-08T01:29:31.424Z,4.27
2022-11-08T01:34:35.558Z,4.23
2022-11-08T01:39:37.977Z,4.20
2022-11-08T01:44:55.328Z,3.50
2022-11-08T01:50:00.658Z,3.78
2022-11-08T01:55:07.245Z,3.67
2022-11-08T02:00:12.548Z,3.25
2022-11-08T02:05:26.551Z,3.63
2022-11-08T02:10:31.736Z,3.65
2022-11-08T02:15:34.366Z,4.47
2022-11-08T02:20:38.477Z,3.93
2022-11-08T02:25:42.269Z,3.83
2022-11-08T02:30:44.767Z,4.22
2022-11-08T02:35:49.501Z,3.73
2022-11-08T02:40:54.491Z,3.72
2022-11-08T02:45:58.326Z,4.18
2022-11-08T02:51:00.903Z,3.35
2022-11-08T02:56:05.164Z,3.70
2022-11-08T03:01:07.685Z,3.40
2022-11-08T03:06:10.319Z,4.30
2022-11-08T03:11:14.094Z,3.70
2022-11-08T03:16:16.826Z,3.72
2022-11-08T03:21:19.583Z,3.75
2022-11-08T03:26:23.437Z,3.63
2022-11-08T03:31:26.117Z,3.30
2022-11-08T03:36:28.526Z,3.70
2022-11-08T03:41:32.665Z,3.83
2022-11-08T03:46:35.100Z,3.15
2022-11-08T03:51:37.524Z,3.22
2022-11-08T03:56:41.382Z,3.30
2022-11-08T04:01:44.075Z,3.03
2022-11-08T04:06:46.592Z,3.58
2022-11-08T04:12:07.779Z,2.70
2022-11-08T04:17:10.421Z,2.80
2022-11-08T04:22:13.204Z,2.73
2022-11-08T04:27:17.062Z,3.00
2022-11-08T04:32:19.622Z,2.80
2022-11-08T04:37:22.137Z,3.07
2022-11-08T04:42:25.950Z,2.83
2022-11-08T04:47:29.136Z,2.35
2022-11-08T04:52:31.554Z,2.70
2022-11-08T04:57:35.378Z,2.40
2022-11-08T05:02:37.975Z,2.33
2022-11-08T05:07:40.631Z,2.80
2022-11-08T05:12:44.488Z,3.67
2022-11-08T05:17:46.934Z,2.80
2022-11-08T05:23:06.828Z,2.87
2022-11-08T05:28:10.624Z,3.28
2022-11-08T05:33:15.788Z,3.95
2022-11-08T05:38:18.707Z,4.40
2022-11-08T05:43:22.864Z,4.05
2022-11-08T05:48:25.590Z,4.40
2022-11-08T05:53:28.304Z,4.47
2022-11-08T05:58:32.971Z,4.33
2022-11-08T06:03:35.769Z,3.70
2022-11-08T06:08:38.514Z,3.85
2022-11-08T06:13:43.741Z,3.38
2022-11-08T06:18:46.950Z,2.83
2022-11-08T06:23:49.481Z,3.35
2022-11-08T06:28:53.581Z,2.33
2022-11-08T06:33:56.063Z,2.42
2022-11-08T06:38:58.575Z,2.80
2022-11-08T06:44:02.392Z,2.67
2022-11-08T06:49:05.137Z,2.47
2022-11-08T06:54:08.781Z,2.63
2022-11-08T06:59:13.157Z,2.60
2022-11-08T07:04:15.579Z,3.05
2022-11-08T07:09:18.217Z,2.65
2022-11-08T07:14:22.152Z,2.47
2022-11-08T07:19:24.613Z,2.92
2022-11-08T07:24:27.222Z,2.53
2022-11-08T07:29:31.070Z,2.53
2022-11-08T07:34:33.506Z,2.53
2022-11-08T07:39:35.993Z,2.53
2022-11-08T07:44:40.030Z,2.30
2022-11-08T07:49:42.497Z,2.00
2022-11-08T07:54:45.188Z,2.50
2022-11-08T07:59:49.057Z,1.80
2022-11-08T08:04:51.648Z,2.20
2022-11-08T08:09:54.209Z,2.05
2022-11-08T08:14:58.240Z,2.10
2022-11-08T08:20:00.661Z,2.63
2022-11-08T08:25:03.495Z,2.20
2022-11-08T08:30:08.316Z,2.10
2022-11-08T08:35:11.096Z,1.80
2022-11-08T08:40:13.581Z,2.15
2022-11-08T08:45:17.668Z,3.03
2022-11-08T08:50:20.242Z,2.20
2022-11-08T08:55:22.967Z,1.90
2022-11-08T09:05:50.654Z,1.92
2022-11-08T09:10:56.192Z,2.10
2022-11-08T09:16:01.593Z,2.13
2022-11-08T09:21:04.404Z,1.55
2022-11-08T09:26:07.228Z,1.83
2022-11-08T09:31:12.180Z,1.50
2022-11-08T09:36:14.761Z,1.38
2022-11-08T09:41:34.931Z,1.88
2022-11-08T09:46:40.711Z,1.67
2022-11-08T09:51:43.425Z,1.88
2022-11-08T09:56:47.060Z,1.70
2022-11-08T10:01:51.063Z,1.70
2022-11-08T10:07:06.324Z,1.50
2022-11-08T10:12:13.116Z,1.98
2022-11-08T10:17:26.164Z,1.70
2022-11-08T10:22:32.680Z,1.85
2022-11-08T10:27:37.950Z,2.22
2022-11-08T10:32:42.217Z,1.50
2022-11-08T10:37:45.657Z,1.80
2022-11-08T10:42:48.912Z,1.98
2022-11-08T10:47:53.229Z,1.75
2022-11-08T10:52:59.137Z,1.70
2022-11-08T10:58:01.716Z,1.55
2022-11-08T11:03:23.283Z,1.65
2022-11-08T11:08:27.594Z,1.80
2022-11-08T11:13:30.591Z,1.75
2022-11-08T11:18:34.023Z,1.95
2022-11-08T11:23:44.946Z,1.75
2022-11-08T11:29:02.751Z,2.13
2022-11-08T11:34:21.870Z,1.67
2022-11-08T11:39:28.705Z,1.50
2022-11-08T11:44:34.452Z,1.40
2022-11-08T11:49:54.794Z,1.40
2022-11-08T11:54:58.613Z,2.10
2022-11-08T12:00:04.914Z,1.80
2022-11-08T12:05:15.608Z,1.50
2022-11-08T12:10:23.261Z,1.73
2022-11-08T12:15:29.779Z,1.70
2022-11-08T12:20:47.693Z,1.95
2022-11-08T12:25:55.567Z,1.67
2022-11-08T12:31:00.308Z,1.92
2022-11-08T12:36:11.367Z,1.73
2022-11-08T12:41:20.672Z,1.50
2022-11-08T12:46:23.355Z,1.88
2022-11-08T12:51:29.566Z,1.73
2022-11-08T12:56:38.098Z,1.80
2022-11-08T13:01:41.645Z,1.75
2022-11-08T13:06:46.163Z,1.88
2022-11-08T13:11:53.582Z,1.83
2022-11-08T13:17:15.943Z,2.42
2022-11-08T13:22:33.438Z,2.00
2022-11-08T13:27:38.059Z,1.60
2022-11-08T13:32:51.155Z,1.65
2022-11-08T13:38:00.085Z,1.60
2022-11-08T13:43:23.553Z,1.77
2022-11-08T13:49:05.235Z,1.70
2022-11-08T13:54:36.405Z,1.95
2022-11-08T13:59:53.898Z,1.85
2022-11-08T14:05:08.847Z,1.80
2022-11-08T14:10:18.613Z,1.80
2022-11-08T14:15:24.119Z,1.70
2022-11-08T14:20:31.274Z,1.98
2022-11-08T14:25:36.103Z,1.50
2022-11-08T14:30:38.536Z,1.63
2022-11-08T14:35:42.398Z,1.80
2022-11-08T14:40:48.562Z,1.73
2022-11-08T14:45:51.642Z,2.10
2022-11-08T14:51:00.365Z,1.60
2022-11-08T14:56:06.675Z,1.70
2022-11-08T15:01:10.845Z,1.90
2022-11-08T15:06:14.823Z,1.70
2022-11-08T15:11:28.336Z,2.17
2022-11-08T15:21:35.373Z,1.50
2022-11-08T15:26:38.434Z,2.03
2022-11-08T15:31:43.359Z,1.58
2022-11-08T15:36:47.664Z,1.73
2022-11-08T15:41:59.720Z,2.20
2022-11-08T15:47:02.458Z,2.40
2022-11-08T15:52:06.477Z,2.45
2022-11-08T15:57:09.195Z,1.85
2022-11-08T16:02:14.520Z,1.88
2022-11-08T16:07:18.482Z,1.80
2022-11-08T16:12:21.816Z,1.77
2022-11-08T16:22:28.687Z,2.28
2022-11-08T16:27:31.491Z,1.80
2022-11-08T16:32:33.902Z,2.10
2022-11-08T16:37:38.125Z,1.83
2022-11-08T16:42:40.527Z,2.17
2022-11-08T16:47:43.587Z,2.17
2022-11-08T16:52:48.158Z,1.80
2022-11-08T16:57:50.612Z,2.13
2022-11-08T17:02:54.003Z,2.97
2022-11-08T17:07:58.026Z,2.70
2022-11-08T17:13:00.498Z,1.83
2022-11-08T17:18:03.565Z,1.60
2022-11-08T17:23:07.446Z,2.08
2022-11-08T17:28:10.371Z,1.88
2022-11-08T17:33:16.326Z,1.77
2022-11-08T17:38:20.776Z,1.90
2022-11-08T17:43:23.175Z,2.20
2022-11-08T17:48:25.963Z,1.90
2022-11-08T17:53:29.785Z,1.98
2022-11-08T17:58:34.861Z,2.10
2022-11-08T18:03:37.444Z,2.45
2022-11-08T18:08:41.885Z,1.73
2022-11-08T18:13:45.532Z,2.03
2022-11-08T18:18:48.269Z,2.42
2022-11-08T18:23:53.227Z,2.35
2022-11-08T18:28:58.272Z,2.92
2022-11-08T18:34:01.067Z,2.78
2022-11-08T18:39:04.950Z,3.10
2022-11-08T18:44:07.733Z,3.17
2022-11-08T18:54:14.275Z,2.30
2022-11-08T18:59:16.759Z,2.22
2022-11-08T19:04:19.195Z,2.20
2022-11-08T19:09:23.297Z,2.60
2022-11-08T19:14:25.874Z,2.60
2022-11-08T19:19:31.544Z,1.90
2022-11-08T19:24:36.360Z,2.20
2022-11-08T19:29:38.983Z,2.30
2022-11-08T19:34:45.301Z,2.10
2022-11-08T19:39:49.495Z,2.20
2022-11-08T19:44:52.243Z,2.28
2022-11-08T19:49:56.225Z,2.25
2022-11-08T19:55:00.054Z,1.83
2022-11-08T20:00:03.828Z,2.35
2022-11-08T20:05:06.839Z,2.00
2022-11-08T20:10:11.498Z,2.08
2022-11-08T20:15:14.416Z,1.90
2022-11-08T20:20:16.929Z,2.30
2022-11-08T20:25:20.743Z,1.70
2022-11-08T20:30:23.794Z,2.00
2022-11-08T20:35:26.795Z,2.05
2022-11-08T20:40:31.257Z,2.53
2022-11-08T20:45:33.691Z,2.05
2022-11-08T20:50:39.323Z,1.97
2022-11-08T20:55:43.402Z,1.88
2022-11-08T21:01:02.609Z,1.70
2022-11-08T21:06:06.146Z,1.95
2022-11-08T21:11:12.668Z,2.05
2022-11-08T21:16:29.968Z,2.03
2022-11-08T21:21:34.456Z,2.20
2022-11-08T21:26:38.320Z,2.13
2022-11-08T21:31:40.758Z,1.98
2022-11-08T21:36:43.311Z,1.67
2022-11-08T21:41:47.229Z,1.97
2022-11-08T21:46:49.596Z,1.88
2022-11-08T21:51:52.173Z,2.33
2022-11-08T21:56:56.955Z,2.33
2022-11-08T22:01:59.481Z,2.05
2022-11-08T22:07:02.300Z,2.70
2022-11-08T22:12:06.318Z,2.38
2022-11-08T22:17:08.800Z,2.17
2022-11-08T22:22:11.666Z,2.07
2022-11-08T22:27:15.485Z,2.00
2022-11-08T22:32:18.099Z,1.85
2022-11-08T22:37:20.524Z,2.00
2022-11-08T22:42:24.604Z,2.47
2022-11-08T22:47:27.060Z,2.50
2022-11-08T22:52:29.644Z,2.47
2022-11-08T22:57:33.716Z,2.80
2022-11-08T23:02:36.503Z,2.33
2022-11-08T23:07:39.006Z,2.72
2022-11-08T23:13:00.485Z,2.40
2022-11-08T23:18:03.937Z,2.33
2022-11-08T23:23:24.028Z,2.47
2022-11-08T23:28:45.078Z,2.08
2022-11-08T23:33:48.465Z,2.00
2022-11-08T23:38:52.582Z,2.00
2022-11-08T23:44:15.160Z,2.08
2022-11-08T23:49:17.653Z,2.90
2022-11-08T23:54:20.457Z,2.20
2022-11-08T23:59:24.310Z,2.50
